Bel Aire, Kansas
Current Conditions -  °F | °C
As of 6:54 PM on Tuesday 21 Oct 2014 (Local Time) from KAAO Reporting Station
Clear Clear  
Wind Chill: 71°   Ceiling: Unl
Heat Index: 71°   Visibility: 10mi
Dew Point: 59°   Wind: 6mph
Humidity: 66%   Direction: 150°SSE
Pressure: 30.01"   Gusts: NA
Location:  37.7646°N, 97.2186°W
Report Text: KAAO 212354Z AUTO 15005KT 10SM CLR 22/15 A3001 RMK AO2 SLP158 T02170150 10267 20217 55002
Loading
Personal Weather Stations






























Interactive Weather Map
Tropical Storm Tracking
New forecast layout! Learn more

10-Day Weather Forecast

Advertisements
Track Severe Weather on mobile